sensor_id;sensor_type;location;lat;lon;timestamp;temperature;humidity
1594;DHT22;790;47.000;16.084;2023-04-01T00:02:03;10.60;99.90
1594;DHT22;790;47.000;16.084;2023-04-01T00:04:30;10.40;99.90
1594;DHT22;790;47.000;16.084;2023-04-01T00:07:00;10.30;99.90
1594;DHT22;790;47.000;16.084;2023-04-01T00:09:27;10.40;99.90
1594;DHT22;790;47.000;16.084;2023-04-01T00:11:55;10.30;99.90
1594;DHT22;790;47.000;16.084;2023-04-01T00:14:27;10.30;99.90
1594;DHT22;790;47.000;16.084;2023-04-01T00:16:56;10.20;99.90
1594;DHT22;790;47.000;16.084;2023-04-01T00:19:23;10.30;99.90
1594;DHT22;790;47.000;16.084;2023-04-01T00:21:50;10.30;99.90
1594;DHT22;790;47.000;16.084;2023-04-01T00:24:17;10.40;99.90
1594;DHT22;790;47.000;16.084;2023-04-01T00:26:44;10.40;99.90
1594;DHT22;790;47.000;16.084;2023-04-01T00:29:14;10.50;99.90
1594;DHT22;790;47.000;16.084;2023-04-01T00:31:42;10.70;99.90
1594;DHT22;790;47.000;16.084;2023-04-01T00:34:10;10.60;99.90
1594;DHT22;790;47.000;16.084;2023-04-01T00:36:37;10.60;99.90
1594;DHT22;790;47.000;16.084;2023-04-01T00:39:04;10.60;99.90
1594;DHT22;790;47.000;16.084;2023-04-01T00:41:31;10.60;99.90
1594;DHT22;790;47.000;16.084;2023-04-01T00:44:19;10.60;99.90
1594;DHT22;790;47.000;16.084;2023-04-01T00:46:48;10.70;99.90
1594;DHT22;790;47.000;16.084;2023-04-01T00:49:17;10.70;99.90
1594;DHT22;790;47.000;16.084;2023-04-01T00:51:49;10.80;99.90
1594;DHT22;790;47.000;16.084;2023-04-01T00:54:17;10.80;99.90
1594;DHT22;790;47.000;16.084;2023-04-01T00:56:49;10.80;99.90
1594;DHT22;790;47.000;16.084;2023-04-01T00:59:25;10.80;99.90
1594;DHT22;790;47.000;16.084;2023-04-01T01:01:57;10.70;99.90
1594;DHT22;790;47.000;16.084;2023-04-01T01:04:28;10.60;99.90
1594;DHT22;790;47.000;16.084;2023-04-01T01:07:03;10.60;99.90
1594;DHT22;790;47.000;16.084;2023-04-01T01:09:43;10.60;99.90
1594;DHT22;790;47.000;16.084;2023-04-01T01:12:16;10.50;99.90
1594;DHT22;790;47.000;16.084;2023-04-01T01:14:55;10.50;99.90
1594;DHT22;790;47.000;16.084;2023-04-01T01:17:43;10.60;99.90
1594;DHT22;790;47.000;16.084;2023-04-01T01:20:31;10.50;99.90
1594;DHT22;790;47.000;16.084;2023-04-01T01:23:14;10.40;99.90
1594;DHT22;790;47.000;16.084;2023-04-01T01:25:59;10.40;99.90
1594;DHT22;790;47.000;16.084;2023-04-01T01:28:43;10.40;99.90
1594;DHT22;790;47.000;16.084;2023-04-01T01:31:24;10.50;99.90
1594;DHT22;790;47.000;16.084;2023-04-01T01:34:09;10.40;99.90
1594;DHT22;790;47.000;16.084;2023-04-01T01:36:42;10.40;99.90
1594;DHT22;790;47.000;16.084;2023-04-01T01:39:13;10.30;99.90
1594;DHT22;790;47.000;16.084;2023-04-01T01:41:42;10.30;99.90
1594;DHT22;790;47.000;16.084;2023-04-01T01:44:14;10.20;99.90
1594;DHT22;790;47.000;16.084;2023-04-01T01:46:45;10.30;99.90
1594;DHT22;790;47.000;16.084;2023-04-01T01:49:14;10.20;99.90
1594;DHT22;790;47.000;16.084;2023-04-01T01:51:42;10.20;99.90
1594;DHT22;790;47.000;16.084;2023-04-01T01:54:17;10.20;99.90
1594;DHT22;790;47.000;16.084;2023-04-01T01:56:46;10.20;99.90
1594;DHT22;790;47.000;16.084;2023-04-01T01:59:16;10.10;99.90
1594;DHT22;790;47.000;16.084;2023-04-01T02:01:48;10.00;99.90
1594;DHT22;790;47.000;16.084;2023-04-01T02:04:18;10.00;99.90
1594;DHT22;790;47.000;16.084;2023-04-01T02:06:59;9.90;99.90
1594;DHT22;790;47.000;16.084;2023-04-01T02:09:27;10.00;99.90
1594;DHT22;790;47.000;16.084;2023-04-01T02:11:57;10.00;99.90
1594;DHT22;790;47.000;16.084;2023-04-01T02:14:28;10.10;99.90
1594;DHT22;790;47.000;16.084;2023-04-01T02:17:07;10.10;99.90
1594;DHT22;790;47.000;16.084;2023-04-01T02:19:39;10.20;99.90
1594;DHT22;790;47.000;16.084;2023-04-01T02:22:14;10.20;99.90
1594;DHT22;790;47.000;16.084;2023-04-01T02:24:43;10.30;99.90
1594;DHT22;790;47.000;16.084;2023-04-01T02:27:15;10.30;99.90
1594;DHT22;790;47.000;16.084;2023-04-01T02:29:43;10.30;99.90
1594;DHT22;790;47.000;16.084;2023-04-01T02:32:14;10.20;99.90
1594;DHT22;790;47.000;16.084;2023-04-01T02:34:43;10.20;99.90
1594;DHT22;790;47.000;16.084;2023-04-01T02:37:13;10.10;99.90
1594;DHT22;790;47.000;16.084;2023-04-01T02:39:42;9.90;99.90
1594;DHT22;790;47.000;16.084;2023-04-01T02:42:13;9.70;99.90
1594;DHT22;790;47.000;16.084;2023-04-01T02:44:49;9.70;99.90
1594;DHT22;790;47.000;16.084;2023-04-01T02:47:16;9.80;99.90
1594;DHT22;790;47.000;16.084;2023-04-01T02:49:43;9.80;99.90
1594;DHT22;790;47.000;16.084;2023-04-01T02:52:12;10.00;99.90
1594;DHT22;790;47.000;16.084;2023-04-01T02:54:39;10.00;99.90
1594;DHT22;790;47.000;16.084;2023-04-01T02:57:06;10.00;99.90
1594;DHT22;790;47.000;16.084;2023-04-01T02:59:33;10.10;99.90
1594;DHT22;790;47.000;16.084;2023-04-01T03:02:01;10.00;99.90
1594;DHT22;790;47.000;16.084;2023-04-01T03:04:28;9.90;99.90
1594;DHT22;790;47.000;16.084;2023-04-01T03:06:56;9.70;99.90
1594;DHT22;790;47.000;16.084;2023-04-01T03:09:24;9.60;99.90
1594;DHT22;790;47.000;16.084;2023-04-01T03:11:52;9.60;99.90
1594;DHT22;790;47.000;16.084;2023-04-01T03:14:19;9.60;99.90
1594;DHT22;790;47.000;16.084;2023-04-01T03:16:49;9.50;99.90
1594;DHT22;790;47.000;16.084;2023-04-01T03:19:16;9.40;99.90
1594;DHT22;790;47.000;16.084;2023-04-01T03:21:43;9.40;99.90
1594;DHT22;790;47.000;16.084;2023-04-01T03:24:10;9.30;99.90
1594;DHT22;790;47.000;16.084;2023-04-01T03:26:38;9.30;99.90
1594;DHT22;790;47.000;16.084;2023-04-01T03:29:05;9.30;99.90
1594;DHT22;790;47.000;16.084;2023-04-01T03:31:32;9.30;99.90
1594;DHT22;790;47.000;16.084;2023-04-01T03:33:59;9.30;99.90
1594;DHT22;790;47.000;16.084;2023-04-01T03:36:27;9.30;99.90
1594;DHT22;790;47.000;16.084;2023-04-01T03:38:54;9.30;99.90
1594;DHT22;790;47.000;16.084;2023-04-01T03:41:22;9.30;99.90
1594;DHT22;790;47.000;16.084;2023-04-01T03:43:50;9.30;99.90
1594;DHT22;790;47.000;16.084;2023-04-01T03:46:18;9.30;99.90
1594;DHT22;790;47.000;16.084;2023-04-01T03:48:45;9.30;99.90
1594;DHT22;790;47.000;16.084;2023-04-01T03:51:12;9.20;99.90
1594;DHT22;790;47.000;16.084;2023-04-01T03:53:39;9.30;99.90
1594;DHT22;790;47.000;16.084;2023-04-01T03:56:07;9.20;99.90
1594;DHT22;790;47.000;16.084;2023-04-01T03:58:36;9.20;99.90
1594;DHT22;790;47.000;16.084;2023-04-01T04:01:15;9.10;99.90
1594;DHT22;790;47.000;16.084;2023-04-01T04:03:43;9.10;99.90
1594;DHT22;790;47.000;16.084;2023-04-01T04:06:12;9.00;99.90
1594;DHT22;790;47.000;16.084;2023-04-01T04:08:39;9.00;99.90
1594;DHT22;790;47.000;16.084;2023-04-01T04:11:06;9.00;99.90
1594;DHT22;790;47.000;16.084;2023-04-01T04:13:35;9.10;99.90
1594;DHT22;790;47.000;16.084;2023-04-01T04:16:03;9.10;99.90
1594;DHT22;790;47.000;16.084;2023-04-01T04:18:36;9.10;99.90
1594;DHT22;790;47.000;16.084;2023-04-01T04:21:04;9.00;99.90
1594;DHT22;790;47.000;16.084;2023-04-01T04:23:31;8.90;99.90
1594;DHT22;790;47.000;16.084;2023-04-01T04:26:03;8.80;99.90
1594;DHT22;790;47.000;16.084;2023-04-01T04:28:31;8.60;99.90
1594;DHT22;790;47.000;16.084;2023-04-01T04:30:59;8.60;99.90
1594;DHT22;790;47.000;16.084;2023-04-01T04:33:26;8.70;99.90
1594;DHT22;790;47.000;16.084;2023-04-01T04:35:57;8.80;99.90
1594;DHT22;790;47.000;16.084;2023-04-01T04:38:26;8.80;99.90
1594;DHT22;790;47.000;16.084;2023-04-01T04:40:53;8.70;99.90
1594;DHT22;790;47.000;16.084;2023-04-01T04:43:21;8.70;99.90
1594;DHT22;790;47.000;16.084;2023-04-01T04:45:48;8.70;99.90
1594;DHT22;790;47.000;16.084;2023-04-01T04:48:16;8.70;99.90
1594;DHT22;790;47.000;16.084;2023-04-01T04:50:44;8.70;99.90
1594;DHT22;790;47.000;16.084;2023-04-01T04:53:14;8.60;99.90
1594;DHT22;790;47.000;16.084;2023-04-01T04:55:43;8.60;99.90
1594;DHT22;790;47.000;16.084;2023-04-01T04:58:11;8.50;99.90
1594;DHT22;790;47.000;16.084;2023-04-01T05:00:38;8.50;99.90
1594;DHT22;790;47.000;16.084;2023-04-01T05:03:05;8.50;99.90
1594;DHT22;790;47.000;16.084;2023-04-01T05:05:34;8.50;99.90
1594;DHT22;790;47.000;16.084;2023-04-01T05:08:01;8.40;99.90
1594;DHT22;790;47.000;16.084;2023-04-01T05:10:30;8.40;99.90
1594;DHT22;790;47.000;16.084;2023-04-01T05:12:57;8.40;99.90
1594;DHT22;790;47.000;16.084;2023-04-01T05:15:24;8.40;99.90
1594;DHT22;790;47.000;16.084;2023-04-01T05:17:51;8.40;99.90
1594;DHT22;790;47.000;16.084;2023-04-01T05:20:19;8.30;99.90
1594;DHT22;790;47.000;16.084;2023-04-01T05:22:46;8.30;99.90
1594;DHT22;790;47.000;16.084;2023-04-01T05:25:13;8.30;99.90
1594;DHT22;790;47.000;16.084;2023-04-01T05:27:41;8.30;99.90
1594;DHT22;790;47.000;16.084;2023-04-01T05:30:09;8.30;99.90
1594;DHT22;790;47.000;16.084;2023-04-01T05:32:37;8.30;99.90
1594;DHT22;790;47.000;16.084;2023-04-01T05:35:04;8.40;99.90
1594;DHT22;790;47.000;16.084;2023-04-01T05:37:33;8.30;99.90
1594;DHT22;790;47.000;16.084;2023-04-01T05:40:01;8.20;99.90
1594;DHT22;790;47.000;16.084;2023-04-01T05:42:28;8.30;99.90
1594;DHT22;790;47.000;16.084;2023-04-01T05:44:57;8.40;99.90
1594;DHT22;790;47.000;16.084;2023-04-01T05:47:24;8.40;99.90
1594;DHT22;790;47.000;16.084;2023-04-01T05:49:51;8.40;99.90
1594;DHT22;790;47.000;16.084;2023-04-01T05:52:18;8.50;99.90
1594;DHT22;790;47.000;16.084;2023-04-01T05:54:45;8.50;99.90
1594;DHT22;790;47.000;16.084;2023-04-01T05:57:13;8.50;99.90
1594;DHT22;790;47.000;16.084;2023-04-01T05:59:40;8.50;99.90
1594;DHT22;790;47.000;16.084;2023-04-01T06:02:10;8.40;99.90
1594;DHT22;790;47.000;16.084;2023-04-01T06:04:38;8.50;99.90
1594;DHT22;790;47.000;16.084;2023-04-01T06:07:11;8.60;99.90
1594;DHT22;790;47.000;16.084;2023-04-01T06:09:39;8.70;99.90
1594;DHT22;790;47.000;16.084;2023-04-01T06:12:36;8.70;99.90
1594;DHT22;790;47.000;16.084;2023-04-01T06:15:23;8.80;99.90
1594;DHT22;790;47.000;16.084;2023-04-01T06:18:07;8.90;99.90
1594;DHT22;790;47.000;16.084;2023-04-01T06:20:43;8.90;99.90
1594;DHT22;790;47.000;16.084;2023-04-01T06:23:29;9.00;99.90
1594;DHT22;790;47.000;16.084;2023-04-01T06:26:12;9.00;99.90
1594;DHT22;790;47.000;16.084;2023-04-01T06:28:58;9.10;99.90
1594;DHT22;790;47.000;16.084;2023-04-01T06:31:46;9.10;99.90
1594;DHT22;790;47.000;16.084;2023-04-01T06:34:31;9.00;99.90
1594;DHT22;790;47.000;16.084;2023-04-01T06:37:11;9.10;99.90
1594;DHT22;790;47.000;16.084;2023-04-01T06:40:10;9.20;99.90
1594;DHT22;790;47.000;16.084;2023-04-01T06:42:50;9.20;99.90
1594;DHT22;790;47.000;16.084;2023-04-01T06:45:29;9.20;99.90
1594;DHT22;790;47.000;16.084;2023-04-01T06:50:55;9.40;99.90
1594;DHT22;790;47.000;16.084;2023-04-01T06:53:29;9.40;99.90
1594;DHT22;790;47.000;16.084;2023-04-01T06:56:02;9.50;99.90
1594;DHT22;790;47.000;16.084;2023-04-01T06:58:37;9.60;99.90
1594;DHT22;790;47.000;16.084;2023-04-01T07:01:08;9.60;99.90
1594;DHT22;790;47.000;16.084;2023-04-01T07:03:40;9.70;99.90
1594;DHT22;790;47.000;16.084;2023-04-01T07:06:14;9.80;99.90
1594;DHT22;790;47.000;16.084;2023-04-01T07:08:44;9.80;99.90
1594;DHT22;790;47.000;16.084;2023-04-01T07:11:20;9.90;99.90
1594;DHT22;790;47.000;16.084;2023-04-01T07:13:52;9.90;99.90
1594;DHT22;790;47.000;16.084;2023-04-01T07:16:25;10.00;99.90
1594;DHT22;790;47.000;16.084;2023-04-01T07:18:58;10.10;99.90
1594;DHT22;790;47.000;16.084;2023-04-01T07:21:30;10.10;99.90
1594;DHT22;790;47.000;16.084;2023-04-01T07:24:04;10.30;99.90
1594;DHT22;790;47.000;16.084;2023-04-01T07:26:32;10.50;99.90
1594;DHT22;790;47.000;16.084;2023-04-01T07:28:59;10.60;99.90
1594;DHT22;790;47.000;16.084;2023-04-01T07:31:41;10.70;99.90
1594;DHT22;790;47.000;16.084;2023-04-01T07:34:17;10.70;99.90
1594;DHT22;790;47.000;16.084;2023-04-01T07:36:51;10.80;99.90
1594;DHT22;790;47.000;16.084;2023-04-01T07:39:30;11.00;99.90
1594;DHT22;790;47.000;16.084;2023-04-01T07:42:07;11.00;99.90
1594;DHT22;790;47.000;16.084;2023-04-01T07:44:43;11.20;99.90
1594;DHT22;790;47.000;16.084;2023-04-01T07:47:20;11.30;99.90
1594;DHT22;790;47.000;16.084;2023-04-01T07:50:00;11.40;99.90
1594;DHT22;790;47.000;16.084;2023-04-01T07:52:34;11.40;99.90
1594;DHT22;790;47.000;16.084;2023-04-01T07:55:06;11.50;99.90
1594;DHT22;790;47.000;16.084;2023-04-01T07:57:38;11.60;99.90
1594;DHT22;790;47.000;16.084;2023-04-01T08:00:15;11.70;99.90
1594;DHT22;790;47.000;16.084;2023-04-01T08:03:04;11.80;99.90
1594;DHT22;790;47.000;16.084;2023-04-01T08:05:41;11.80;99.90
1594;DHT22;790;47.000;16.084;2023-04-01T08:08:19;12.00;99.90
1594;DHT22;790;47.000;16.084;2023-04-01T08:10:54;12.10;99.90
1594;DHT22;790;47.000;16.084;2023-04-01T08:13:31;12.10;99.90
1594;DHT22;790;47.000;16.084;2023-04-01T08:16:08;12.20;99.90
1594;DHT22;790;47.000;16.084;2023-04-01T08:18:43;12.40;99.90
1594;DHT22;790;47.000;16.084;2023-04-01T08:21:15;12.40;99.90
1594;DHT22;790;47.000;16.084;2023-04-01T08:23:48;12.50;99.90
1594;DHT22;790;47.000;16.084;2023-04-01T08:26:26;12.60;99.90
1594;DHT22;790;47.000;16.084;2023-04-01T08:29:01;12.70;99.90
1594;DHT22;790;47.000;16.084;2023-04-01T08:31:33;12.90;99.90
1594;DHT22;790;47.000;16.084;2023-04-01T08:34:04;13.00;99.90
1594;DHT22;790;47.000;16.084;2023-04-01T08:36:35;13.10;99.90
1594;DHT22;790;47.000;16.084;2023-04-01T08:39:07;13.20;99.90
1594;DHT22;790;47.000;16.084;2023-04-01T08:42:06;13.30;99.90
1594;DHT22;790;47.000;16.084;2023-04-01T08:45:00;13.40;99.90
1594;DHT22;790;47.000;16.084;2023-04-01T08:50:55;13.60;99.90
1594;DHT22;790;47.000;16.084;2023-04-01T08:53:43;13.70;99.90
1594;DHT22;790;47.000;16.084;2023-04-01T08:56:18;13.80;99.90
1594;DHT22;790;47.000;16.084;2023-04-01T08:59:13;13.80;99.90
1594;DHT22;790;47.000;16.084;2023-04-01T09:01:58;13.90;99.90
1594;DHT22;790;47.000;16.084;2023-04-01T09:04:41;14.00;99.90
1594;DHT22;790;47.000;16.084;2023-04-01T09:07:26;14.10;99.90
1594;DHT22;790;47.000;16.084;2023-04-01T09:10:09;14.20;99.90
1594;DHT22;790;47.000;16.084;2023-04-01T09:12:51;14.30;99.90
1594;DHT22;790;47.000;16.084;2023-04-01T09:15:42;14.50;99.90
1594;DHT22;790;47.000;16.084;2023-04-01T09:18:39;14.60;99.90
1594;DHT22;790;47.000;16.084;2023-04-01T09:21:34;14.70;99.90
1594;DHT22;790;47.000;16.084;2023-04-01T09:24:22;14.90;99.90
1594;DHT22;790;47.000;16.084;2023-04-01T09:27:03;14.90;99.90
1594;DHT22;790;47.000;16.084;2023-04-01T09:29:54;14.90;99.90
1594;DHT22;790;47.000;16.084;2023-04-01T09:32:42;15.00;99.90
1594;DHT22;790;47.000;16.084;2023-04-01T09:35:21;15.20;99.90
1594;DHT22;790;47.000;16.084;2023-04-01T09:37:54;15.30;99.90
1594;DHT22;790;47.000;16.084;2023-04-01T09:40:33;15.40;99.90
1594;DHT22;790;47.000;16.084;2023-04-01T09:43:25;15.30;99.90
1594;DHT22;790;47.000;16.084;2023-04-01T09:46:10;15.40;99.90
1594;DHT22;790;47.000;16.084;2023-04-01T09:51:48;15.40;99.90
1594;DHT22;790;47.000;16.084;2023-04-01T09:54:35;15.40;99.90
1594;DHT22;790;47.000;16.084;2023-04-01T09:57:28;15.50;99.90
1594;DHT22;790;47.000;16.084;2023-04-01T10:00:39;15.60;99.90
1594;DHT22;790;47.000;16.084;2023-04-01T10:09:58;15.60;99.90
1594;DHT22;790;47.000;16.084;2023-04-01T10:19:22;15.50;99.90
1594;DHT22;790;47.000;16.084;2023-04-01T10:22:42;15.60;99.90
1594;DHT22;790;47.000;16.084;2023-04-01T10:28:36;15.70;99.90
1594;DHT22;790;47.000;16.084;2023-04-01T10:31:35;15.80;99.90
1594;DHT22;790;47.000;16.084;2023-04-01T10:37:50;15.80;99.90
1594;DHT22;790;47.000;16.084;2023-04-01T10:40:54;16.00;99.90
1594;DHT22;790;47.000;16.084;2023-04-01T10:44:08;16.00;99.90
1594;DHT22;790;47.000;16.084;2023-04-01T10:47:19;16.00;99.90
1594;DHT22;790;47.000;16.084;2023-04-01T10:50:21;15.90;99.90
1594;DHT22;790;47.000;16.084;2023-04-01T10:53:34;15.90;99.90
1594;DHT22;790;47.000;16.084;2023-04-01T10:56:33;15.90;99.90
1594;DHT22;790;47.000;16.084;2023-04-01T11:05:40;16.20;99.90
1594;DHT22;790;47.000;16.084;2023-04-01T11:08:52;16.30;99.90
1594;DHT22;790;47.000;16.084;2023-04-01T11:12:07;16.20;99.90
1594;DHT22;790;47.000;16.084;2023-04-01T11:27:05;16.50;99.90
1594;DHT22;790;47.000;16.084;2023-04-01T11:30:00;16.20;99.30
1594;DHT22;790;47.000;16.084;2023-04-01T11:32:42;16.20;99.90
1594;DHT22;790;47.000;16.084;2023-04-01T11:38:24;16.20;99.20
1594;DHT22;790;47.000;16.084;2023-04-01T11:40:59;16.20;99.90
1594;DHT22;790;47.000;16.084;2023-04-01T11:43:34;16.10;99.20
1594;DHT22;790;47.000;16.084;2023-04-01T11:46:10;16.10;97.50
1594;DHT22;790;47.000;16.084;2023-04-01T11:48:50;16.10;98.40
1594;DHT22;790;47.000;16.084;2023-04-01T11:51:55;16.10;97.90
1594;DHT22;790;47.000;16.084;2023-04-01T11:54:37;16.10;99.30
1594;DHT22;790;47.000;16.084;2023-04-01T12:06:15;16.20;98.80
1594;DHT22;790;47.000;16.084;2023-04-01T12:08:51;16.10;99.00
1594;DHT22;790;47.000;16.084;2023-04-01T12:11:28;16.10;99.60
1594;DHT22;790;47.000;16.084;2023-04-01T12:14:08;16.20;99.40
1594;DHT22;790;47.000;16.084;2023-04-01T12:16:43;16.20;99.00
1594;DHT22;790;47.000;16.084;2023-04-01T12:19:23;16.20;99.00
1594;DHT22;790;47.000;16.084;2023-04-01T12:22:03;16.30;98.00
1594;DHT22;790;47.000;16.084;2023-04-01T12:24:46;16.30;98.00
1594;DHT22;790;47.000;16.084;2023-04-01T12:30:32;16.50;98.20
1594;DHT22;790;47.000;16.084;2023-04-01T12:33:16;16.60;98.40
1594;DHT22;790;47.000;16.084;2023-04-01T12:35:56;16.60;96.60
1594;DHT22;790;47.000;16.084;2023-04-01T12:38:36;16.60;96.80
1594;DHT22;790;47.000;16.084;2023-04-01T12:41:10;16.60;96.90
1594;DHT22;790;47.000;16.084;2023-04-01T12:44:04;16.60;97.20
1594;DHT22;790;47.000;16.084;2023-04-01T12:46:47;16.50;96.30
1594;DHT22;790;47.000;16.084;2023-04-01T12:49:40;16.40;96.70
1594;DHT22;790;47.000;16.084;2023-04-01T12:52:13;16.50;97.30
1594;DHT22;790;47.000;16.084;2023-04-01T12:55:03;16.50;97.60
1594;DHT22;790;47.000;16.084;2023-04-01T13:00:44;16.70;96.90
1594;DHT22;790;47.000;16.084;2023-04-01T13:03:40;16.70;96.20
1594;DHT22;790;47.000;16.084;2023-04-01T13:09:13;16.80;96.10
1594;DHT22;790;47.000;16.084;2023-04-01T13:11:53;16.80;95.30
1594;DHT22;790;47.000;16.084;2023-04-01T13:14:44;16.60;94.80
1594;DHT22;790;47.000;16.084;2023-04-01T13:17:18;16.70;95.10
1594;DHT22;790;47.000;16.084;2023-04-01T13:19:50;16.70;94.70
1594;DHT22;790;47.000;16.084;2023-04-01T13:22:23;16.50;95.60
1594;DHT22;790;47.000;16.084;2023-04-01T13:24:59;16.50;96.30
1594;DHT22;790;47.000;16.084;2023-04-01T13:27:33;16.50;94.50
1594;DHT22;790;47.000;16.084;2023-04-01T13:30:11;16.50;95.10
1594;DHT22;790;47.000;16.084;2023-04-01T13:32:47;16.60;96.30
1594;DHT22;790;47.000;16.084;2023-04-01T13:35:26;16.70;94.70
1594;DHT22;790;47.000;16.084;2023-04-01T13:38:13;16.70;95.60
1594;DHT22;790;47.000;16.084;2023-04-01T13:40:51;16.80;95.40
1594;DHT22;790;47.000;16.084;2023-04-01T13:43:23;16.80;95.50
1594;DHT22;790;47.000;16.084;2023-04-01T13:46:07;16.90;95.30
1594;DHT22;790;47.000;16.084;2023-04-01T13:49:08;16.80;95.30
1594;DHT22;790;47.000;16.084;2023-04-01T13:52:07;16.70;93.80
1594;DHT22;790;47.000;16.084;2023-04-01T13:54:56;16.70;95.90
1594;DHT22;790;47.000;16.084;2023-04-01T13:57:48;16.70;95.40
1594;DHT22;790;47.000;16.084;2023-04-01T14:00:31;16.70;96.00
1594;DHT22;790;47.000;16.084;2023-04-01T14:03:26;16.80;95.30
1594;DHT22;790;47.000;16.084;2023-04-01T14:06:05;16.70;95.00
1594;DHT22;790;47.000;16.084;2023-04-01T14:08:54;16.70;95.10
1594;DHT22;790;47.000;16.084;2023-04-01T14:11:27;16.70;94.70
1594;DHT22;790;47.000;16.084;2023-04-01T14:14:06;16.60;94.30
1594;DHT22;790;47.000;16.084;2023-04-01T14:16:59;16.60;94.80
1594;DHT22;790;47.000;16.084;2023-04-01T14:19:44;16.70;96.20
1594;DHT22;790;47.000;16.084;2023-04-01T14:22:25;16.80;95.40
1594;DHT22;790;47.000;16.084;2023-04-01T14:25:20;16.90;94.90
1594;DHT22;790;47.000;16.084;2023-04-01T14:27:57;16.90;95.60
1594;DHT22;790;47.000;16.084;2023-04-01T14:30:54;16.80;94.50
1594;DHT22;790;47.000;16.084;2023-04-01T14:33:33;16.90;94.30
1594;DHT22;790;47.000;16.084;2023-04-01T14:36:23;16.80;95.00
1594;DHT22;790;47.000;16.084;2023-04-01T14:38:59;16.80;93.90
1594;DHT22;790;47.000;16.084;2023-04-01T14:41:36;16.80;94.00
1594;DHT22;790;47.000;16.084;2023-04-01T14:44:28;16.80;94.30
1594;DHT22;790;47.000;16.084;2023-04-01T14:47:17;16.80;93.50
1594;DHT22;790;47.000;16.084;2023-04-01T14:49:52;16.80;94.00
1594;DHT22;790;47.000;16.084;2023-04-01T14:52:24;16.70;94.30
1594;DHT22;790;47.000;16.084;2023-04-01T14:54:54;16.90;93.50
1594;DHT22;790;47.000;16.084;2023-04-01T14:57:25;16.90;93.90
1594;DHT22;790;47.000;16.084;2023-04-01T14:59:58;16.90;94.10
1594;DHT22;790;47.000;16.084;2023-04-01T15:02:46;16.90;93.70
1594;DHT22;790;47.000;16.084;2023-04-01T15:05:28;16.90;93.50
1594;DHT22;790;47.000;16.084;2023-04-01T15:08:05;17.00;92.80
1594;DHT22;790;47.000;16.084;2023-04-01T15:10:58;17.00;92.90
1594;DHT22;790;47.000;16.084;2023-04-01T15:13:53;16.90;93.90
1594;DHT22;790;47.000;16.084;2023-04-01T15:16:27;17.10;94.70
1594;DHT22;790;47.000;16.084;2023-04-01T15:19:11;17.20;94.10
1594;DHT22;790;47.000;16.084;2023-04-01T15:22:03;17.20;92.50
1594;DHT22;790;47.000;16.084;2023-04-01T15:24:41;17.20;92.20
1594;DHT22;790;47.000;16.084;2023-04-01T15:27:34;17.20;92.80
1594;DHT22;790;47.000;16.084;2023-04-01T15:30:24;17.20;91.30
1594;DHT22;790;47.000;16.084;2023-04-01T15:33:22;17.10;92.20
1594;DHT22;790;47.000;16.084;2023-04-01T15:35:59;17.00;92.10
1594;DHT22;790;47.000;16.084;2023-04-01T15:38:34;17.10;93.00
1594;DHT22;790;47.000;16.084;2023-04-01T15:41:10;17.10;93.00
1594;DHT22;790;47.000;16.084;2023-04-01T15:43:41;17.00;92.00
1594;DHT22;790;47.000;16.084;2023-04-01T15:49:20;17.00;91.30
1594;DHT22;790;47.000;16.084;2023-04-01T15:52:17;17.00;92.50
1594;DHT22;790;47.000;16.084;2023-04-01T15:55:08;17.00;91.70
1594;DHT22;790;47.000;16.084;2023-04-01T15:57:44;17.00;92.40
1594;DHT22;790;47.000;16.084;2023-04-01T16:00:25;16.90;92.10
1594;DHT22;790;47.000;16.084;2023-04-01T16:03:10;16.90;91.20
1594;DHT22;790;47.000;16.084;2023-04-01T16:05:42;16.80;91.00
1594;DHT22;790;47.000;16.084;2023-04-01T16:08:31;16.80;91.70
1594;DHT22;790;47.000;16.084;2023-04-01T16:11:12;16.80;92.60
1594;DHT22;790;47.000;16.084;2023-04-01T16:13:48;16.80;92.80
1594;DHT22;790;47.000;16.084;2023-04-01T16:16:28;16.80;90.70
1594;DHT22;790;47.000;16.084;2023-04-01T16:19:13;16.70;90.50
1594;DHT22;790;47.000;16.084;2023-04-01T16:21:46;16.60;90.80
1594;DHT22;790;47.000;16.084;2023-04-01T16:24:23;16.60;92.50
1594;DHT22;790;47.000;16.084;2023-04-01T16:26:54;16.60;91.20
1594;DHT22;790;47.000;16.084;2023-04-01T16:29:29;16.60;91.80
1594;DHT22;790;47.000;16.084;2023-04-01T16:32:09;16.50;92.40
1594;DHT22;790;47.000;16.084;2023-04-01T16:34:42;16.50;93.10
1594;DHT22;790;47.000;16.084;2023-04-01T16:37:12;16.30;93.10
1594;DHT22;790;47.000;16.084;2023-04-01T16:39:52;16.30;93.00
1594;DHT22;790;47.000;16.084;2023-04-01T16:42:28;16.30;95.50
1594;DHT22;790;47.000;16.084;2023-04-01T16:45:06;16.10;96.70
1594;DHT22;790;47.000;16.084;2023-04-01T16:47:48;16.00;97.90
1594;DHT22;790;47.000;16.084;2023-04-01T16:50:19;15.80;97.60
1594;DHT22;790;47.000;16.084;2023-04-01T16:53:02;15.60;98.20
1594;DHT22;790;47.000;16.084;2023-04-01T16:55:48;15.40;98.40
1594;DHT22;790;47.000;16.084;2023-04-01T16:58:22;15.30;98.60
1594;DHT22;790;47.000;16.084;2023-04-01T17:00:55;15.20;98.40
1594;DHT22;790;47.000;16.084;2023-04-01T17:03:26;15.10;99.90
1594;DHT22;790;47.000;16.084;2023-04-01T17:06:18;15.00;99.90
1594;DHT22;790;47.000;16.084;2023-04-01T17:08:58;14.90;99.90
1594;DHT22;790;47.000;16.084;2023-04-01T17:11:36;14.80;99.90
1594;DHT22;790;47.000;16.084;2023-04-01T17:14:15;14.70;99.90
1594;DHT22;790;47.000;16.084;2023-04-01T17:16:55;14.60;99.90
1594;DHT22;790;47.000;16.084;2023-04-01T17:19:35;14.50;99.90
1594;DHT22;790;47.000;16.084;2023-04-01T17:22:11;14.20;99.90
1594;DHT22;790;47.000;16.084;2023-04-01T17:24:55;14.00;99.90
1594;DHT22;790;47.000;16.084;2023-04-01T17:27:39;13.90;99.90
1594;DHT22;790;47.000;16.084;2023-04-01T17:30:18;13.70;99.90
1594;DHT22;790;47.000;16.084;2023-04-01T17:32:58;13.50;99.90
1594;DHT22;790;47.000;16.084;2023-04-01T17:35:32;13.30;99.90
1594;DHT22;790;47.000;16.084;2023-04-01T17:38:11;13.20;99.90
1594;DHT22;790;47.000;16.084;2023-04-01T17:40:48;13.10;99.90
1594;DHT22;790;47.000;16.084;2023-04-01T17:43:27;12.90;99.90
1594;DHT22;790;47.000;16.084;2023-04-01T17:46:03;12.80;99.90
1594;DHT22;790;47.000;16.084;2023-04-01T17:48:41;12.70;99.90
1594;DHT22;790;47.000;16.084;2023-04-01T17:51:22;12.50;99.90
1594;DHT22;790;47.000;16.084;2023-04-01T17:53:59;12.40;99.90
1594;DHT22;790;47.000;16.084;2023-04-01T17:56:52;12.40;99.90
1594;DHT22;790;47.000;16.084;2023-04-01T17:59:28;12.30;99.90
1594;DHT22;790;47.000;16.084;2023-04-01T18:02:03;12.40;99.90
1594;DHT22;790;47.000;16.084;2023-04-01T18:04:57;12.40;99.90
1594;DHT22;790;47.000;16.084;2023-04-01T18:10:28;12.30;99.90
1594;DHT22;790;47.000;16.084;2023-04-01T18:16:12;12.40;99.90
1594;DHT22;790;47.000;16.084;2023-04-01T18:18:50;12.40;99.90
1594;DHT22;790;47.000;16.084;2023-04-01T18:21:27;12.30;99.90
1594;DHT22;790;47.000;16.084;2023-04-01T18:24:00;12.40;99.90
1594;DHT22;790;47.000;16.084;2023-04-01T18:26:33;12.50;99.90
1594;DHT22;790;47.000;16.084;2023-04-01T18:29:12;12.50;99.90
1594;DHT22;790;47.000;16.084;2023-04-01T18:31:44;12.40;99.90